createdAt,value
2022-11-09T00:00:42.504Z,3.30
2022-11-09T00:03:10.090Z,4.95
2022-11-09T00:05:37.635Z,5.60
2022-11-09T00:08:11.887Z,4.88
2022-11-09T00:10:39.473Z,7.10
2022-11-09T00:13:07.039Z,4.95
2022-11-09T00:15:34.585Z,4.30
2022-11-09T00:18:03.026Z,6.45
2022-11-09T00:20:30.631Z,6.70
2022-11-09T00:22:58.419Z,6.28
2022-11-09T00:25:25.971Z,4.63
2022-11-09T00:27:53.912Z,3.80
2022-11-09T00:30:21.566Z,5.43
2022-11-09T00:32:49.125Z,4.63
2022-11-09T00:35:16.822Z,3.95
2022-11-09T00:37:44.432Z,4.07
2022-11-09T00:40:13.000Z,5.10
2022-11-09T00:42:40.562Z,4.93
2022-11-09T00:45:08.548Z,3.72
2022-11-09T00:47:36.136Z,4.43
2022-11-09T00:50:03.973Z,6.38
2022-11-09T00:52:31.526Z,4.57
2022-11-09T00:54:59.062Z,4.43
2022-11-09T00:57:26.594Z,5.45
2022-11-09T00:59:54.170Z,4.10
2022-11-09T01:02:21.753Z,3.78
2022-11-09T01:04:50.177Z,3.88
2022-11-09T01:07:17.745Z,5.43
2022-11-09T01:09:45.366Z,4.35
2022-11-09T01:12:12.912Z,3.95
2022-11-09T01:14:40.548Z,3.55
2022-11-09T01:17:08.149Z,4.10
2022-11-09T01:19:35.703Z,3.15
2022-11-09T01:22:03.326Z,3.40
2022-11-09T01:24:30.875Z,4.15
2022-11-09T01:26:58.424Z,4.15
2022-11-09T01:29:26.986Z,3.63
2022-11-09T01:31:56.896Z,3.45
2022-11-09T01:34:24.479Z,4.10
2022-11-09T01:36:52.212Z,3.42
2022-11-09T01:39:20.002Z,7.88
2022-11-09T01:41:47.885Z,3.20
2022-11-09T01:44:16.810Z,4.90
2022-11-09T01:46:44.373Z,4.53
2022-11-09T01:49:30.557Z,4.85
2022-11-09T01:52:00.796Z,5.72
2022-11-09T01:54:32.339Z,4.20
2022-11-09T01:57:04.329Z,2.28
2022-11-09T01:59:34.607Z,3.50
2022-11-09T02:02:02.703Z,3.88
2022-11-09T02:04:37.416Z,2.55
2022-11-09T02:07:05.860Z,3.85
2022-11-09T02:09:40.342Z,2.83
2022-11-09T02:12:08.596Z,2.97
2022-11-09T02:14:37.078Z,4.07
2022-11-09T02:17:04.799Z,2.35
2022-11-09T02:19:32.421Z,1.83
2022-11-09T02:21:59.976Z,3.75
2022-11-09T02:24:28.271Z,3.00
2022-11-09T02:26:55.963Z,2.67
2022-11-09T02:29:29.695Z,4.43
2022-11-09T02:31:59.996Z,3.55
2022-11-09T02:34:28.429Z,3.47
2022-11-09T02:36:55.980Z,2.92
2022-11-09T02:39:26.186Z,2.63
2022-11-09T02:41:56.805Z,2.30
2022-11-09T02:44:29.260Z,2.40
2022-11-09T02:46:56.846Z,3.17
2022-11-09T02:49:26.090Z,4.10
2022-11-09T02:51:53.647Z,2.63
2022-11-09T02:54:21.188Z,2.17
2022-11-09T02:56:49.917Z,3.42
2022-11-09T02:59:17.765Z,3.75
2022-11-09T03:01:45.809Z,2.30
2022-11-09T03:04:13.412Z,3.22
2022-11-09T03:06:41.712Z,3.47
2022-11-09T03:09:15.847Z,2.60
2022-11-09T03:11:43.546Z,3.35
2022-11-09T03:14:13.691Z,2.42
2022-11-09T03:16:50.828Z,2.92
2022-11-09T03:19:19.182Z,3.95
2022-11-09T03:21:49.363Z,2.45
2022-11-09T03:24:17.015Z,2.97
2022-11-09T03:26:44.711Z,2.50
2022-11-09T03:29:12.344Z,1.63
2022-11-09T03:31:40.155Z,3.95
2022-11-09T03:34:10.499Z,1.45
2022-11-09T03:36:38.053Z,2.70
2022-11-09T03:39:05.667Z,2.50
2022-11-09T03:41:35.032Z,1.33
2022-11-09T03:44:02.661Z,3.28
2022-11-09T03:46:30.267Z,1.50
2022-11-09T03:48:57.842Z,1.83
2022-11-09T03:51:25.401Z,1.85
2022-11-09T03:53:53.111Z,1.17
2022-11-09T03:56:20.649Z,1.90
2022-11-09T03:58:48.200Z,1.70
2022-11-09T04:01:16.888Z,6.20
2022-11-09T04:03:44.572Z,1.00
2022-11-09T04:06:12.213Z,2.25
2022-11-09T04:08:39.804Z,3.58
2022-11-09T04:11:07.504Z,2.00
2022-11-09T04:13:35.080Z,2.67
2022-11-09T04:16:03.691Z,1.45
2022-11-09T04:18:31.362Z,1.10
2022-11-09T04:20:59.534Z,2.25
2022-11-09T04:23:27.055Z,1.48
2022-11-09T04:25:54.631Z,1.58
2022-11-09T04:28:22.209Z,0.80
2022-11-09T04:30:49.775Z,2.53
2022-11-09T04:33:17.742Z,1.52
2022-11-09T04:35:45.581Z,3.05
2022-11-09T04:38:14.332Z,2.22
2022-11-09T04:40:42.139Z,2.70
2022-11-09T04:43:11.684Z,1.27
2022-11-09T04:45:39.289Z,1.65
2022-11-09T04:48:07.610Z,1.52
2022-11-09T04:50:35.194Z,1.33
2022-11-09T04:53:13.017Z,0.90
2022-11-09T04:55:40.644Z,2.65
2022-11-09T04:58:08.616Z,1.80
2022-11-09T05:00:36.524Z,0.70
2022-11-09T05:03:05.001Z,1.15
2022-11-09T05:05:36.603Z,1.00
2022-11-09T05:08:05.709Z,2.15
2022-11-09T05:10:33.303Z,2.83
2022-11-09T05:13:01.856Z,1.95
2022-11-09T05:15:29.725Z,1.40
2022-11-09T05:17:57.698Z,2.22
2022-11-09T05:20:25.883Z,1.55
2022-11-09T05:23:12.115Z,2.15
2022-11-09T05:25:39.762Z,1.60
2022-11-09T05:28:09.211Z,2.00
2022-11-09T05:30:37.392Z,1.25
2022-11-09T05:33:05.339Z,1.77
2022-11-09T05:35:34.182Z,1.80
2022-11-09T05:38:01.748Z,2.63
2022-11-09T05:40:29.360Z,3.95
2022-11-09T05:42:57.027Z,1.88
2022-11-09T05:45:42.213Z,1.95
2022-11-09T05:48:13.210Z,2.92
2022-11-09T05:50:41.267Z,1.58
2022-11-09T05:53:35.114Z,4.15
2022-11-09T05:56:12.469Z,1.95
2022-11-09T05:58:41.275Z,4.45
2022-11-09T06:01:10.242Z,3.25
2022-11-09T06:03:37.806Z,1.98
2022-11-09T06:06:08.570Z,2.13
2022-11-09T06:08:37.121Z,2.75
2022-11-09T06:11:06.388Z,2.00
2022-11-09T06:13:34.131Z,1.67
2022-11-09T06:16:03.393Z,2.08
2022-11-09T06:18:32.006Z,2.65
2022-11-09T06:21:01.110Z,3.42
2022-11-09T06:23:30.144Z,1.92
2022-11-09T06:25:58.430Z,2.60
2022-11-09T06:28:26.345Z,2.25
2022-11-09T06:30:53.999Z,2.13
2022-11-09T06:33:22.001Z,2.58
2022-11-09T06:35:55.909Z,2.10
2022-11-09T06:38:28.078Z,2.17
2022-11-09T06:40:56.486Z,1.88
2022-11-09T06:43:24.655Z,4.43
2022-11-09T06:45:52.913Z,3.10
2022-11-09T06:48:20.894Z,4.57
2022-11-09T06:50:48.441Z,2.85
2022-11-09T06:53:17.001Z,4.32
2022-11-09T06:55:50.151Z,3.15
2022-11-09T06:58:19.650Z,4.47
2022-11-09T07:00:47.535Z,4.20
2022-11-09T07:03:16.144Z,4.20
2022-11-09T07:05:44.171Z,6.95
2022-11-09T07:08:12.153Z,4.53
2022-11-09T07:10:39.726Z,2.85
2022-11-09T07:13:07.858Z,5.22
2022-11-09T07:15:35.916Z,5.72
2022-11-09T07:18:05.222Z,4.00
2022-11-09T07:20:33.093Z,4.10
2022-11-09T07:23:00.774Z,3.75
2022-11-09T07:25:28.454Z,4.13
2022-11-09T07:27:56.081Z,2.75
2022-11-09T07:30:23.633Z,5.15
2022-11-09T07:33:08.598Z,9.52
2022-11-09T07:35:37.833Z,3.58
2022-11-09T07:38:05.398Z,3.30
2022-11-09T07:40:32.979Z,2.38
2022-11-09T07:43:01.108Z,2.88
2022-11-09T07:45:29.441Z,9.18
2022-11-09T07:48:01.200Z,3.42
2022-11-09T07:50:29.983Z,5.63
2022-11-09T07:52:58.161Z,3.20
2022-11-09T07:55:26.476Z,4.25
2022-11-09T07:58:00.953Z,4.15
2022-11-09T08:00:29.799Z,5.40
2022-11-09T08:02:57.618Z,3.28
2022-11-09T08:05:25.501Z,2.33
2022-11-09T08:08:00.211Z,4.63
2022-11-09T08:10:28.903Z,2.72
2022-11-09T08:13:07.010Z,4.45
2022-11-09T08:15:35.397Z,6.78
2022-11-09T08:18:04.609Z,4.03
2022-11-09T08:20:32.203Z,2.53
2022-11-09T08:23:04.075Z,4.80
2022-11-09T08:25:36.012Z,3.70
2022-11-09T08:28:04.148Z,4.72
2022-11-09T08:30:32.139Z,4.18
2022-11-09T08:33:00.472Z,5.00
2022-11-09T08:35:28.737Z,4.93
2022-11-09T08:37:57.050Z,3.05
2022-11-09T08:40:25.536Z,2.50
2022-11-09T08:42:53.729Z,3.05
2022-11-09T08:45:21.297Z,4.03
2022-11-09T08:47:48.933Z,6.43
2022-11-09T08:50:16.781Z,5.03
2022-11-09T08:52:44.512Z,2.90
2022-11-09T08:55:12.180Z,2.88
2022-11-09T08:57:39.855Z,2.90
2022-11-09T09:00:08.005Z,4.20
2022-11-09T09:02:36.255Z,6.53
2022-11-09T09:05:04.806Z,3.95
2022-11-09T09:07:32.584Z,3.63
2022-11-09T09:10:00.281Z,3.03
2022-11-09T09:12:28.223Z,11.13
2022-11-09T09:14:55.909Z,4.88
2022-11-09T09:17:23.797Z,3.10
2022-11-09T09:19:51.354Z,3.50
2022-11-09T09:22:19.725Z,6.30
2022-11-09T09:24:47.579Z,6.68
2022-11-09T09:27:15.369Z,2.85
2022-11-09T09:29:42.946Z,6.63
2022-11-09T09:32:10.686Z,3.05
2022-11-09T09:34:38.376Z,4.78
2022-11-09T09:37:06.100Z,3.83
2022-11-09T09:39:34.189Z,5.97
2022-11-09T09:42:05.310Z,2.97
2022-11-09T09:44:35.388Z,3.53
2022-11-09T09:47:08.352Z,1.92
2022-11-09T09:49:38.461Z,3.38
2022-11-09T09:52:10.799Z,3.47
2022-11-09T09:54:43.494Z,4.50
2022-11-09T09:57:19.335Z,4.50
2022-11-09T09:59:50.224Z,5.93
2022-11-09T10:02:22.097Z,4.15
2022-11-09T10:07:20.431Z,4.53
2022-11-09T10:10:03.252Z,4.53
2022-11-09T10:12:42.982Z,5.85
2022-11-09T10:15:10.600Z,2.90
2022-11-09T10:17:41.507Z,3.50
2022-11-09T10:22:46.766Z,6.05
2022-11-09T10:25:32.226Z,2.95
2022-11-09T10:28:13.329Z,3.38
2022-11-09T10:30:41.148Z,5.80
2022-11-09T10:33:11.770Z,5.20
2022-11-09T10:35:45.059Z,3.58
2022-11-09T10:38:18.838Z,2.30
2022-11-09T10:40:52.427Z,3.20
2022-11-09T10:43:38.390Z,8.98
2022-11-09T10:46:24.778Z,4.85
2022-11-09T10:49:22.932Z,3.55
2022-11-09T10:52:28.067Z,6.45
2022-11-09T10:55:22.641Z,3.03
2022-11-09T10:58:26.725Z,3.47
2022-11-09T11:01:15.406Z,2.90
2022-11-09T11:04:19.610Z,4.63
2022-11-09T11:07:19.573Z,4.68
2022-11-09T11:10:11.846Z,3.47
2022-11-09T11:13:18.162Z,4.90
2022-11-09T11:16:14.748Z,3.53
2022-11-09T11:19:00.925Z,4.55
2022-11-09T11:21:47.107Z,4.25
2022-11-09T11:24:42.175Z,4.65
2022-11-09T11:27:40.700Z,3.90
2022-11-09T11:30:29.183Z,4.63
2022-11-09T11:33:17.842Z,2.55
2022-11-09T11:36:10.089Z,2.78
2022-11-09T11:41:54.341Z,3.08
2022-11-09T11:44:40.248Z,3.58
2022-11-09T11:47:41.373Z,1.58
2022-11-09T11:50:39.834Z,2.20
2022-11-09T11:53:43.388Z,2.42
2022-11-09T11:56:32.952Z,1.77
2022-11-09T11:59:31.412Z,2.72
2022-11-09T12:02:17.771Z,1.42
2022-11-09T12:05:04.589Z,1.17
2022-11-09T12:08:01.329Z,1.38
2022-11-09T12:10:52.286Z,1.33
2022-11-09T12:13:39.715Z,2.60
2022-11-09T12:16:31.945Z,3.05
2022-11-09T12:19:35.737Z,2.25
2022-11-09T12:22:34.569Z,3.28
2022-11-09T12:25:27.075Z,2.38
2022-11-09T12:28:34.526Z,3.50
2022-11-09T12:31:24.769Z,1.65
2022-11-09T12:34:17.006Z,2.58
2022-11-09T12:39:55.246Z,2.70
2022-11-09T12:43:02.924Z,2.97
2022-11-09T12:45:50.460Z,1.52
2022-11-09T12:48:36.685Z,2.90
2022-11-09T12:51:23.335Z,2.72
2022-11-09T12:54:11.560Z,1.27
2022-11-09T12:57:02.887Z,1.40
2022-11-09T12:59:58.904Z,3.37
2022-11-09T13:02:56.152Z,2.45
2022-11-09T13:05:44.755Z,2.00
2022-11-09T13:08:31.745Z,2.15
2022-11-09T13:11:18.021Z,2.95
2022-11-09T13:14:22.596Z,4.88
2022-11-09T13:17:24.382Z,3.58
2022-11-09T13:20:53.291Z,3.20
2022-11-09T13:26:46.571Z,4.15
2022-11-09T13:29:42.127Z,2.70
2022-11-09T13:32:37.244Z,3.78
2022-11-09T13:35:43.077Z,4.53
2022-11-09T13:38:30.601Z,2.53
2022-11-09T13:41:32.022Z,4.18
2022-11-09T13:44:32.679Z,3.50
2022-11-09T13:47:28.344Z,3.58
2022-11-09T13:50:18.863Z,3.03
2022-11-09T13:53:04.956Z,5.88
2022-11-09T13:55:51.777Z,4.28
2022-11-09T13:58:39.465Z,3.83
2022-11-09T14:01:26.803Z,2.97
2022-11-09T14:04:23.163Z,3.75
2022-11-09T14:07:29.077Z,4.32
2022-11-09T14:10:33.787Z,2.10
2022-11-09T14:13:28.117Z,2.67
2022-11-09T14:16:13.902Z,3.22
2022-11-09T14:19:14.703Z,3.00
2022-11-09T14:22:00.615Z,3.42
2022-11-09T14:24:47.351Z,2.33
2022-11-09T14:27:33.494Z,2.05
2022-11-09T14:30:22.229Z,4.05
2022-11-09T14:33:40.692Z,2.80
2022-11-09T14:36:28.165Z,3.08
2022-11-09T14:39:24.039Z,2.78
2022-11-09T14:42:15.015Z,6.90
2022-11-09T14:45:01.390Z,4.07
2022-11-09T14:47:49.064Z,2.92
2022-11-09T14:50:37.688Z,6.40
2022-11-09T14:53:27.361Z,2.75
2022-11-09T14:56:16.425Z,5.45
2022-11-09T14:59:05.628Z,3.50
2022-11-09T15:02:01.591Z,3.30
2022-11-09T15:05:01.182Z,4.78
2022-11-09T15:07:48.331Z,13.80
2022-11-09T15:10:34.591Z,5.38
2022-11-09T15:13:28.414Z,5.93
2022-11-09T15:16:22.172Z,5.75
2022-11-09T15:19:21.126Z,7.18
2022-11-09T15:22:27.377Z,6.95
2022-11-09T15:25:32.284Z,9.05
2022-11-09T15:28:23.105Z,2.80
2022-11-09T15:31:15.988Z,5.32
2022-11-09T15:34:02.142Z,9.60
2022-11-09T15:36:54.101Z,2.17
2022-11-09T15:39:40.174Z,3.33
2022-11-09T15:42:27.181Z,5.45
2022-11-09T15:45:17.563Z,3.40
2022-11-09T15:48:03.539Z,5.20
2022-11-09T15:50:49.848Z,4.60
2022-11-09T15:53:35.886Z,2.28
2022-11-09T15:56:24.171Z,2.88
2022-11-09T15:59:19.108Z,3.97
2022-11-09T16:02:05.386Z,4.13
2022-11-09T16:04:51.426Z,5.18
2022-11-09T16:07:37.739Z,2.95
2022-11-09T16:10:23.943Z,3.10
2022-11-09T16:13:10.903Z,5.35
2022-11-09T16:16:03.100Z,7.75
2022-11-09T16:18:49.656Z,6.22
2022-11-09T16:21:35.806Z,2.13
2022-11-09T16:24:22.120Z,6.57
2022-11-09T16:27:22.269Z,3.45
2022-11-09T16:30:16.104Z,4.47
2022-11-09T16:33:02.325Z,7.30
2022-11-09T16:35:48.534Z,5.35
2022-11-09T16:38:39.501Z,4.55
2022-11-09T16:41:26.067Z,6.18
2022-11-09T16:44:13.095Z,8.35
2022-11-09T16:46:59.234Z,6.43
2022-11-09T16:49:45.145Z,4.00
2022-11-09T16:52:31.257Z,7.75
2022-11-09T16:55:18.188Z,8.07
2022-11-09T16:58:04.419Z,6.00
2022-11-09T17:03:58.442Z,7.32
2022-11-09T17:06:44.509Z,6.97
2022-11-09T17:09:34.198Z,5.30
2022-11-09T17:12:20.377Z,6.88
2022-11-09T17:15:07.423Z,9.30
2022-11-09T17:17:53.896Z,9.15
2022-11-09T17:20:48.132Z,12.07
2022-11-09T17:23:34.123Z,9.43
2022-11-09T17:26:21.174Z,11.95
2022-11-09T17:29:07.516Z,13.95
2022-11-09T17:31:53.811Z,13.20
2022-11-09T17:34:40.568Z,13.77
2022-11-09T17:37:26.588Z,14.55
2022-11-09T17:40:13.007Z,7.95
2022-11-09T17:42:59.579Z,10.23
2022-11-09T17:45:45.823Z,11.57
2022-11-09T17:48:32.891Z,9.80
2022-11-09T17:51:20.222Z,10.23
2022-11-09T17:54:06.683Z,8.95
2022-11-09T17:56:52.900Z,7.07
2022-11-09T17:59:39.148Z,10.40
2022-11-09T18:02:25.365Z,8.82
2022-11-09T18:05:11.684Z,10.77
2022-11-09T18:07:57.694Z,6.82
2022-11-09T18:10:45.392Z,6.43
2022-11-09T18:13:31.483Z,5.15
2022-11-09T18:16:19.510Z,7.20
2022-11-09T18:19:05.987Z,5.75
2022-11-09T18:21:52.159Z,6.95
2022-11-09T18:24:38.463Z,7.78
2022-11-09T18:27:29.905Z,7.75
2022-11-09T18:30:16.833Z,6.43
2022-11-09T18:33:03.102Z,5.88
2022-11-09T18:35:56.518Z,6.35
2022-11-09T18:38:43.513Z,3.83
2022-11-09T18:41:29.820Z,5.97
2022-11-09T18:44:15.758Z,5.85
2022-11-09T18:47:05.296Z,4.90
2022-11-09T18:49:52.508Z,6.88
2022-11-09T18:52:38.686Z,6.32
2022-11-09T18:55:24.948Z,5.47
2022-11-09T18:58:11.141Z,6.70
2022-11-09T19:01:02.021Z,7.25
2022-11-09T19:03:48.293Z,7.15
2022-11-09T19:06:35.309Z,6.20
2022-11-09T19:09:30.331Z,5.90
2022-11-09T19:12:16.562Z,7.05
2022-11-09T19:15:02.592Z,7.00
2022-11-09T19:17:49.889Z,6.03
2022-11-09T19:20:38.382Z,6.90
2022-11-09T19:23:25.122Z,6.28
2022-11-09T19:26:13.385Z,8.27
2022-11-09T19:28:59.571Z,6.13
2022-11-09T19:31:46.249Z,6.30
2022-11-09T19:34:32.506Z,8.65
2022-11-09T19:37:18.815Z,6.70
2022-11-09T19:40:05.299Z,5.32
2022-11-09T19:42:51.280Z,7.10
2022-11-09T19:45:41.772Z,5.25
2022-11-09T19:48:28.413Z,7.70
2022-11-09T19:51:15.440Z,6.90
2022-11-09T19:54:02.425Z,5.60
2022-11-09T19:56:48.580Z,8.20
2022-11-09T19:59:35.531Z,9.10
2022-11-09T20:02:21.434Z,7.32
2022-11-09T20:05:08.387Z,5.95
2022-11-09T20:07:54.571Z,5.47
2022-11-09T20:10:40.829Z,6.93
2022-11-09T20:13:27.026Z,6.43
2022-11-09T20:16:13.187Z,5.47
2022-11-09T20:18:59.749Z,6.35
2022-11-09T20:21:46.163Z,5.07
2022-11-09T20:24:32.265Z,5.88
2022-11-09T20:27:18.417Z,7.70
2022-11-09T20:30:04.947Z,6.40
2022-11-09T20:32:50.737Z,5.55
2022-11-09T20:35:37.100Z,5.65
2022-11-09T20:38:23.911Z,6.85
2022-11-09T20:41:10.892Z,6.30
2022-11-09T20:43:56.918Z,5.55
2022-11-09T20:46:43.147Z,5.45
2022-11-09T20:49:29.371Z,8.05
2022-11-09T20:52:15.697Z,7.28
2022-11-09T20:55:01.834Z,8.23
2022-11-09T20:57:48.170Z,5.32
2022-11-09T21:00:34.579Z,6.15
2022-11-09T21:03:21.602Z,5.13
2022-11-09T21:06:08.519Z,5.97
2022-11-09T21:08:55.899Z,5.15
2022-11-09T21:12:00.618Z,4.28
2022-11-09T21:14:46.911Z,4.82
2022-11-09T21:17:33.328Z,6.57
2022-11-09T21:20:19.500Z,5.53
2022-11-09T21:23:11.765Z,5.95
2022-11-09T21:26:18.531Z,5.22
2022-11-09T21:29:24.400Z,7.68
2022-11-09T21:32:11.595Z,6.07
2022-11-09T21:34:57.917Z,7.13
2022-11-09T21:37:44.176Z,4.25
2022-11-09T21:40:30.796Z,4.60
2022-11-09T21:43:17.518Z,5.10
2022-11-09T21:46:03.780Z,6.25
2022-11-09T21:48:50.221Z,8.25
2022-11-09T21:51:37.041Z,4.35
2022-11-09T21:54:23.469Z,4.10
2022-11-09T21:57:09.624Z,4.70
2022-11-09T21:59:55.834Z,4.70
2022-11-09T22:02:42.145Z,4.20
2022-11-09T22:05:28.411Z,5.30
2022-11-09T22:08:14.577Z,4.50
2022-11-09T22:11:15.378Z,4.28
2022-11-09T22:14:19.930Z,2.88
2022-11-09T22:17:08.609Z,5.80
2022-11-09T22:20:13.397Z,3.50
2022-11-09T22:22:59.519Z,3.28
2022-11-09T22:25:48.051Z,3.40
2022-11-09T22:28:34.386Z,3.35
2022-11-09T22:31:20.255Z,4.95
2022-11-09T22:34:06.479Z,4.18
2022-11-09T22:36:52.758Z,4.38
2022-11-09T22:39:41.766Z,4.55
2022-11-09T22:42:30.887Z,4.70
2022-11-09T22:45:17.314Z,4.10
2022-11-09T22:48:03.390Z,5.32
2022-11-09T22:50:49.731Z,4.30
2022-11-09T22:53:35.998Z,6.35
2022-11-09T22:56:22.083Z,6.25
2022-11-09T22:59:08.599Z,4.43
2022-11-09T23:01:54.517Z,4.88
2022-11-09T23:04:40.576Z,6.07
2022-11-09T23:07:26.784Z,6.05
2022-11-09T23:10:12.827Z,5.15
2022-11-09T23:12:59.623Z,5.70
2022-11-09T23:15:54.074Z,5.72
2022-11-09T23:18:55.534Z,5.05
2022-11-09T23:21:41.501Z,6.45
2022-11-09T23:24:46.337Z,6.07
2022-11-09T23:27:32.522Z,5.68
2022-11-09T23:30:19.184Z,5.85
2022-11-09T23:33:05.709Z,8.20
2022-11-09T23:35:51.769Z,6.82
2022-11-09T23:38:38.969Z,6.32
2022-11-09T23:41:24.921Z,6.25
2022-11-09T23:44:11.215Z,5.85
2022-11-09T23:46:57.508Z,6.68
2022-11-09T23:49:43.600Z,7.05
2022-11-09T23:52:29.990Z,6.95
2022-11-09T23:55:16.327Z,5.93
2022-11-09T23:58:02.932Z,6.35
